Time;durP1;ratioP1;P1;durP2;ratioP2;P2;SDS_P1;SDS_P2;PMS_P1;PMS_P2;Temp;Humidity;BMP_temperature;BMP_pressure;BME280_temperature;BME280_humidity;BME280_pressure;Samples;Min_cycle;Max_cycle;Signal;HPM_P1;HPM_P2
2022/11/04 00:01:32;;;;;;;17.80;6.05;;;;;;;11.89;75.56;99850.56;5044843;28;20041;-68
2022/11/04 00:04:00;;;;;;;13.70;6.00;;;;;;;11.66;76.78;99848.69;5047459;28;20049;-68
2022/11/04 00:06:26;;;;;;;14.27;6.25;;;;;;;11.55;77.42;99841.56;5045081;28;20048;-68
2022/11/04 00:08:55;;;;;;;11.35;6.97;;;;;;;11.99;75.89;99842.88;5045290;28;20052;-68
2022/11/04 00:14:08;;;;;;;10.65;5.95;;;;;;;12.23;75.21;99830.59;5038594;28;20071;-67
2022/11/04 00:19:19;;;;;;;12.57;6.03;;;;;;;12.24;74.63;99821.75;5045516;28;20069;-67
2022/11/04 00:30:02;;;;;;;9.32;6.47;;;;;;;11.71;77.19;99805.41;5044595;28;20060;-67
2022/11/04 00:35:13;;;;;;;12.60;7.10;;;;;;;11.45;78.42;99818.69;5044487;28;20056;-67
2022/11/04 00:37:41;;;;;;;14.55;7.30;;;;;;;10.85;81.83;99816.69;5047013;28;20045;-68
2022/11/04 00:40:11;;;;;;;12.45;7.20;;;;;;;11.13;81.07;99810.41;5043787;28;20468;-67
2022/11/04 00:42:38;;;;;;;11.30;6.68;;;;;;;11.50;79.53;99806.91;5046143;28;20874;-67
2022/11/04 00:45:06;;;;;;;14.65;7.13;;;;;;;11.89;77.65;99805.91;5043886;28;20047;-67
2022/11/04 00:47:33;;;;;;;11.23;6.53;;;;;;;10.90;81.80;99813.78;5046469;28;20049;-66
2022/11/04 00:49:59;;;;;;;18.42;7.85;;;;;;;10.80;83.28;99816.16;5043887;28;20040;-66
2022/11/04 00:52:26;;;;;;;15.25;7.35;;;;;;;10.95;83.29;99823.00;5045891;28;20049;-66
2022/11/04 00:54:52;;;;;;;13.32;7.30;;;;;;;11.33;82.28;99819.53;5046392;28;20041;-66
2022/11/04 00:57:19;;;;;;;15.75;7.97;;;;;;;11.48;81.39;99808.81;5044624;28;20069;-67
2022/11/04 00:59:46;;;;;;;14.75;7.82;;;;;;;11.64;80.68;99809.38;5045628;28;20432;-67
2022/11/04 01:02:13;;;;;;;15.05;8.38;;;;;;;11.74;80.55;99816.66;5045672;28;20493;-67
2022/11/04 01:04:39;;;;;;;16.92;8.35;;;;;;;11.95;80.20;99815.13;5044537;28;20099;-67
2022/11/04 01:07:06;;;;;;;18.95;8.30;;;;;;;11.60;81.34;99809.75;5044679;28;20482;-67
2022/11/04 01:09:33;;;;;;;14.55;8.57;;;;;;;11.55;82.08;99819.72;5045403;28;20052;-68
2022/11/04 01:11:59;;;;;;;16.67;8.57;;;;;;;11.87;80.86;99815.69;5049102;28;20044;-68
2022/11/04 01:14:26;;;;;;;13.13;7.70;;;;;;;12.10;80.40;99811.41;5045590;28;20052;-68
2022/11/04 01:16:53;;;;;;;14.48;8.07;;;;;;;11.78;81.30;99829.47;5044218;28;20523;-68
2022/11/04 01:19:20;;;;;;;14.48;8.38;;;;;;;11.98;81.15;99825.41;5043876;28;20420;-68
2022/11/04 01:21:49;;;;;;;16.42;7.65;;;;;;;12.05;80.62;99830.13;5045426;28;20103;-68
2022/11/04 01:24:16;;;;;;;17.63;7.97;;;;;;;12.16;80.60;99824.06;5045473;28;20041;-69
2022/11/04 01:26:42;;;;;;;14.07;8.25;;;;;;;11.75;82.47;99820.97;5044476;28;20611;-69
2022/11/04 01:29:09;;;;;;;14.02;7.70;;;;;;;11.78;82.19;99823.38;5045924;28;20049;-69
2022/11/04 01:31:35;;;;;;;16.77;8.02;;;;;;;11.87;82.09;99813.03;5045606;28;21083;-68
2022/11/04 01:34:03;;;;;;;15.57;8.32;;;;;;;12.20;80.64;99805.34;5040845;28;20382;-68
2022/11/04 01:36:30;;;;;;;17.25;8.35;;;;;;;11.65;82.58;99804.97;5045233;28;20501;-69
2022/11/04 01:38:57;;;;;;;15.00;7.57;;;;;;;11.84;83.08;99791.41;5044641;28;20045;-69
2022/11/04 01:41:26;;;;;;;18.13;9.02;;;;;;;11.75;83.96;99802.59;5044981;28;20575;-69
2022/11/04 01:43:55;;;;;;;12.18;7.68;;;;;;;11.95;82.98;99788.84;5046979;28;20041;-68
2022/11/04 01:46:35;;;;;;;17.30;8.25;;;;;;;12.01;82.28;99788.44;5050034;28;20044;-68
2022/11/04 01:49:11;;;;;;;15.40;8.57;;;;;;;11.98;82.57;99784.22;5047850;28;20041;-68
2022/11/04 01:51:41;;;;;;;15.80;8.43;;;;;;;11.58;84.46;99788.00;5048752;28;20057;-67
2022/11/04 01:54:10;;;;;;;22.52;8.15;;;;;;;11.58;85.08;99780.97;5040485;28;20060;-67
2022/11/04 01:56:38;;;;;;;17.58;8.48;;;;;;;11.71;84.45;99788.84;5047890;28;20045;-67
2022/11/04 01:59:08;;;;;;;14.63;8.88;;;;;;;11.82;83.77;99782.81;5047887;28;20045;-67
2022/11/04 02:01:35;;;;;;;17.75;8.55;;;;;;;11.45;86.06;99768.81;5048758;28;20041;-67
2022/11/04 02:06:44;;;;;;;15.93;8.27;;;;;;;11.00;88.71;99778.94;5049883;28;20045;-67
2022/11/04 02:09:11;;;;;;;14.75;8.52;;;;;;;11.45;87.02;99777.53;5047684;28;20067;-67
2022/11/04 02:14:22;;;;;;;18.00;9.18;;;;;;;11.45;86.81;99779.31;5047953;28;20873;-66
2022/11/04 02:16:49;;;;;;;15.48;9.45;;;;;;;10.91;89.43;99778.72;5048844;28;20517;-66
2022/11/04 02:19:45;;;;;;;17.02;9.25;;;;;;;10.66;92.05;99777.75;5046699;28;20049;-66
2022/11/04 02:22:31;;;;;;;22.52;9.10;;;;;;;10.13;94.79;99777.78;5019513;28;20045;-66
2022/11/04 02:25:08;;;;;;;21.50;9.85;;;;;;;10.64;92.77;99765.72;5045324;28;20056;-66
2022/11/04 02:27:49;;;;;;;20.13;9.55;;;;;;;10.72;92.43;99769.47;5047548;28;20064;-66
2022/11/04 02:30:18;;;;;;;14.88;9.35;;;;;;;10.96;91.77;99763.50;5046608;28;20044;-67
2022/11/04 02:33:13;;;;;;;17.15;9.25;;;;;;;10.92;91.31;99769.91;5045928;28;20052;-67
2022/11/04 02:35:49;;;;;;;16.10;9.40;;;;;;;10.56;92.80;99773.25;5046967;28;20060;-67
2022/11/04 02:38:28;;;;;;;17.38;9.00;;;;;;;11.03;90.91;99764.75;5048254;28;20056;-67
2022/11/04 02:41:04;;;;;;;16.95;9.10;;;;;;;11.52;87.62;99770.06;5047656;28;20056;-68
2022/11/04 02:43:37;;;;;;;20.33;10.13;;;;;;;11.49;87.63;99765.84;5047166;28;20056;-67
2022/11/04 02:46:14;;;;;;;19.30;9.23;;;;;;;10.95;90.17;99765.28;5046684;28;20044;-67
2022/11/04 02:48:46;;;;;;;18.27;10.07;;;;;;;10.65;92.97;99768.22;5046736;28;20132;-68
2022/11/04 02:51:15;;;;;;;;;;;;;;;11.21;89.45;99766.09;5047575;28;20067;-68
2022/11/04 02:53:46;;;;;;;20.98;9.35;;;;;;;10.97;90.91;99766.03;5046347;28;19921;-68
2022/11/04 02:56:16;;;;;;;17.90;9.32;;;;;;;10.81;91.82;99767.16;5048198;28;20045;-68
2022/11/04 02:58:51;;;;;;;19.00;9.88;;;;;;;10.65;93.04;99772.59;5047092;28;20053;-68
2022/11/04 03:01:22;;;;;;;15.65;9.75;;;;;;;11.16;90.77;99761.19;5045717;28;20041;-68
2022/11/04 03:03:53;;;;;;;17.00;9.85;;;;;;;11.08;90.46;99767.91;5047626;28;20060;-67
2022/11/04 03:06:24;;;;;;;17.58;9.85;;;;;;;10.63;92.87;99777.97;5047356;28;20060;-67
2022/11/04 03:08:53;;;;;;;15.20;9.43;;;;;;;10.77;93.47;99768.31;5046737;28;20053;-66
2022/11/04 03:11:22;;;;;;;22.83;10.40;;;;;;;11.01;91.62;99769.28;5046868;28;20488;-66
2022/11/04 03:13:52;;;;;;;19.85;9.55;;;;;;;10.86;91.89;99763.31;5046617;28;20049;-67
2022/11/04 03:16:25;;;;;;;21.05;9.48;;;;;;;10.95;91.47;99762.66;5046634;28;20048;-67
2022/11/04 03:19:01;;;;;;;17.05;9.07;;;;;;;10.84;92.23;99767.81;5046013;28;20060;-67
2022/11/04 03:21:31;;;;;;;16.48;10.02;;;;;;;10.95;91.92;99762.66;5046805;28;20386;-67
2022/11/04 03:23:58;;;;;;;15.65;9.50;;;;;;;10.41;95.30;99767.25;5046297;28;20386;-66
2022/11/04 03:26:29;;;;;;;21.73;10.05;;;;;;;10.09;98.01;99769.28;5046134;28;20044;-66
2022/11/04 03:29:09;;;;;;;19.77;9.68;;;;;;;9.84;98.68;99774.44;5046382;28;20041;-67
2022/11/04 03:31:44;;;;;;;24.80;11.30;;;;;;;10.34;97.44;99779.06;5045371;28;20052;-67
2022/11/04 03:34:11;;;;;;;21.95;10.95;;;;;;;10.09;99.10;99789.41;5045454;28;20041;-67
2022/11/04 03:36:37;;;;;;;24.25;11.75;;;;;;;10.16;98.60;99788.13;5046255;28;20068;-67
2022/11/04 03:39:04;;;;;;;20.00;10.52;;;;;;;10.14;97.99;99796.06;5045031;28;20409;-68
2022/11/04 03:41:35;;;;;;;21.17;11.15;;;;;;;9.99;99.00;99793.56;5045160;28;20045;-68
2022/11/04 03:44:02;;;;;;;21.52;10.90;;;;;;;10.06;98.66;99800.09;5047125;28;20052;-68
2022/11/04 03:46:29;;;;;;;20.58;11.38;;;;;;;10.31;98.34;99796.78;5045589;28;20508;-68
2022/11/04 03:48:58;;;;;;;19.90;11.32;;;;;;;10.24;98.11;99810.25;5045281;28;20041;-68
2022/11/04 03:51:25;;;;;;;20.20;10.55;;;;;;;10.79;95.05;99792.66;5046878;28;20041;-68
2022/11/04 03:53:51;;;;;;;17.05;10.80;;;;;;;10.45;96.44;99813.28;5046346;28;20045;-68
2022/11/04 03:56:39;;;;;;;17.20;10.40;;;;;;;10.11;99.89;99821.59;5045515;28;20044;-68
2022/11/04 03:59:18;;;;;;;15.10;9.75;;;;;;;10.11;100.00;99824.22;5045759;28;20052;-69
2022/11/04 04:01:52;;;;;;;18.75;11.18;;;;;;;10.23;100.00;99826.09;5045435;28;20056;-69
2022/11/04 04:04:26;;;;;;;19.02;10.98;;;;;;;10.44;98.86;99831.69;5026109;28;20421;-69
2022/11/04 04:06:58;;;;;;;19.17;10.82;;;;;;;10.89;95.69;99831.28;5041891;28;20779;-67
2022/11/04 04:09:33;;;;;;;21.17;9.80;;;;;;;10.50;97.16;99837.38;5045188;28;20139;-67
2022/11/04 04:12:05;;;;;;;21.73;11.15;;;;;;;10.40;99.04;99846.78;5045842;28;20049;-67
2022/11/04 04:14:42;;;;;;;15.52;8.95;;;;;;;10.57;97.33;99836.03;5046515;28;20060;-68
2022/11/04 04:17:17;;;;;;;28.05;10.88;;;;;;;10.61;97.88;99836.66;5044201;28;20115;-68
2022/11/04 04:19:49;;;;;;;22.05;11.40;;;;;;;10.42;99.38;99831.78;5046512;28;20118;-68
2022/11/04 04:22:20;;;;;;;17.67;10.57;;;;;;;10.34;99.65;99836.72;5045864;28;20048;-68
2022/11/04 04:27:35;;;;;;;18.75;10.98;;;;;;;10.25;100.00;99837.28;5044200;28;20488;-68
2022/11/04 04:30:04;;;;;;;21.67;11.35;;;;;;;10.29;100.00;99844.03;5044399;28;20048;-68
2022/11/04 04:32:35;;;;;;;26.73;11.38;;;;;;;10.57;100.00;99838.66;5044779;28;20048;-68
2022/11/04 04:37:48;;;;;;;19.77;10.80;;;;;;;10.66;97.69;99835.44;5044753;28;20106;-67
2022/11/04 04:45:50;;;;;;;19.20;11.20;;;;;;;10.47;100.00;99857.69;5037661;28;20056;-67
2022/11/04 04:48:17;;;;;;;21.33;11.90;;;;;;;10.72;98.64;99852.53;5043956;28;20045;-67
2022/11/04 04:50:49;;;;;;;20.33;11.65;;;;;;;10.63;98.64;99866.25;5044997;28;20111;-67
2022/11/04 04:53:15;;;;;;;25.77;13.67;;;;;;;10.70;99.69;99863.13;5046138;28;20052;-67
2022/11/04 04:55:42;;;;;;;17.83;11.18;;;;;;;10.06;100.00;99873.41;5045972;28;20052;-67
2022/11/04 04:58:09;;;;;;;18.75;11.23;;;;;;;10.15;100.00;99878.13;5045046;28;20045;-68
2022/11/04 05:00:35;;;;;;;24.73;12.85;;;;;;;10.13;100.00;99872.09;5045528;28;20060;-68
2022/11/04 05:03:02;;;;;;;21.98;12.25;;;;;;;10.06;100.00;99874.25;5044106;28;20057;-68
2022/11/04 05:05:28;;;;;;;22.30;11.98;;;;;;;10.27;100.00;99873.88;5046167;28;20048;-68
2022/11/04 05:08:03;;;;;;;20.20;11.98;;;;;;;10.65;100.00;99862.59;5046140;28;20041;-68
2022/11/04 05:10:29;;;;;;;21.67;11.32;;;;;;;10.64;99.74;99853.03;5043477;28;20045;-67
2022/11/04 05:15:40;;;;;;;22.67;12.35;;;;;;;10.60;100.00;99856.81;5044161;28;20127;-68
2022/11/04 05:18:06;;;;;;;19.67;11.27;;;;;;;11.14;98.04;99856.69;5045917;28;20048;-68
2022/11/04 05:20:33;;;;;;;20.48;12.02;;;;;;;10.81;98.51;99851.94;5049717;28;20048;-68
2022/11/04 05:23:01;;;;;;;19.63;11.52;;;;;;;10.41;100.00;99858.97;5048541;28;20072;-67
2022/11/04 05:25:27;;;;;;;19.33;11.10;;;;;;;10.67;100.00;99865.97;5045973;28;20056;-67
2022/11/04 05:27:54;;;;;;;23.00;12.00;;;;;;;10.92;100.00;99859.06;5049058;28;20669;-67
2022/11/04 05:30:20;;;;;;;19.02;11.25;;;;;;;10.91;98.89;99867.88;5047663;28;20049;-67
2022/11/04 05:32:47;;;;;;;22.70;12.32;;;;;;;10.57;100.00;99874.50;5048880;28;20053;-67
2022/11/04 05:35:13;;;;;;;19.73;11.23;;;;;;;10.90;100.00;99860.97;5049388;28;20056;-66
2022/11/04 05:37:40;;;;;;;21.02;11.85;;;;;;;11.03;97.98;99861.81;5048064;28;20056;-66
2022/11/04 05:40:09;;;;;;;20.95;11.27;;;;;;;11.06;97.91;99865.06;5048844;28;20051;-66
2022/11/04 05:42:36;;;;;;;21.40;12.02;;;;;;;10.68;100.00;99882.50;5048514;28;20068;-67
2022/11/04 05:45:03;;;;;;;19.08;11.10;;;;;;;10.78;100.00;99903.75;5048370;28;20076;-67
2022/11/04 05:47:29;;;;;;;24.17;12.02;;;;;;;10.75;100.00;99910.03;5048685;28;20505;-66
2022/11/04 05:49:56;;;;;;;22.98;11.40;;;;;;;10.51;100.00;99899.34;5047758;28;20052;-66
2022/11/04 05:52:22;;;;;;;21.75;12.65;;;;;;;10.29;100.00;99899.03;5048271;28;20048;-66
2022/11/04 05:54:49;;;;;;;25.33;12.77;;;;;;;10.54;100.00;99906.16;5049975;28;20048;-66
2022/11/04 05:57:17;;;;;;;29.67;11.98;;;;;;;10.52;100.00;99898.41;5047773;28;20064;-66
2022/11/04 05:59:43;;;;;;;22.80;11.45;;;;;;;10.68;100.00;99900.84;5047441;28;20041;-66
2022/11/04 06:02:09;;;;;;;18.33;11.43;;;;;;;10.29;100.00;99901.66;5048774;28;20076;-66
2022/11/04 06:04:36;;;;;;;24.65;12.32;;;;;;;10.16;100.00;99919.94;5046776;28;20041;-66
2022/11/04 06:07:02;;;;;;;22.15;11.38;;;;;;;10.40;100.00;99916.69;5047741;28;20048;-66
2022/11/04 06:09:38;;;;;;;22.48;12.85;;;;;;;10.27;100.00;99921.91;5048042;28;20556;-66
2022/11/04 06:12:06;;;;;;;20.23;11.60;;;;;;;10.07;100.00;99930.97;5049185;28;20463;-67
2022/11/04 06:14:34;;;;;;;25.00;12.52;;;;;;;10.47;100.00;99926.69;5046392;28;20048;-66
2022/11/04 06:17:01;;;;;;;21.98;12.60;;;;;;;10.27;100.00;99929.75;5046767;28;20041;-66
2022/11/04 06:19:27;;;;;;;24.13;12.82;;;;;;;10.38;100.00;99924.69;5048222;28;20056;-65
2022/11/04 06:21:54;;;;;;;20.40;12.27;;;;;;;10.85;100.00;99928.63;5048653;28;20060;-66
2022/11/04 06:24:20;;;;;;;20.17;12.50;;;;;;;11.03;99.49;99937.91;5047042;28;20045;-66
2022/11/04 06:26:46;;;;;;;23.42;11.70;;;;;;;11.07;98.96;99947.25;5048787;28;20467;-67
2022/11/04 06:29:13;;;;;;;22.60;12.27;;;;;;;10.85;100.00;99960.09;5046335;28;20045;-67
2022/11/04 06:31:41;;;;;;;25.40;11.43;;;;;;;10.38;100.00;99965.75;5046790;28;20107;-67
2022/11/04 06:34:07;;;;;;;27.67;13.30;;;;;;;10.13;100.00;99966.41;5048561;28;20049;-67
2022/11/04 06:36:34;;;;;;;26.67;12.52;;;;;;;9.92;100.00;99952.00;5047408;28;20045;-66
2022/11/04 06:39:00;;;;;;;20.05;11.57;;;;;;;10.16;100.00;99959.22;5046273;28;20048;-66
2022/11/04 06:41:26;;;;;;;25.88;12.77;;;;;;;10.51;100.00;99961.41;5047403;28;20049;-66
2022/11/04 06:43:53;;;;;;;23.85;12.00;;;;;;;10.44;100.00;99958.34;5047234;28;20045;-66
2022/11/04 06:46:27;;;;;;;23.55;12.30;;;;;;;10.73;100.00;99954.69;5047466;28;20045;-66
2022/11/04 06:48:56;;;;;;;21.33;11.55;;;;;;;10.70;100.00;99961.91;5047741;28;20045;-66
2022/11/04 06:51:23;;;;;;;20.73;11.85;;;;;;;10.99;98.99;99962.66;5047848;28;20560;-66
2022/11/04 06:53:50;;;;;;;20.73;11.93;;;;;;;11.29;97.50;99963.25;5046125;28;20417;-66
2022/11/04 06:56:16;;;;;;;21.30;11.55;;;;;;;11.61;95.58;99951.41;5046742;28;20057;-66
2022/11/04 06:58:43;;;;;;;20.75;11.63;;;;;;;11.87;93.15;99964.56;5047723;28;20052;-66
2022/11/04 07:01:10;;;;;;;22.88;11.23;;;;;;;12.10;91.83;99969.91;5046708;28;20075;-66
2022/11/04 07:03:36;;;;;;;25.13;12.48;;;;;;;12.07;91.07;99982.41;5046768;28;21279;-66
2022/11/04 07:06:08;;;;;;;18.35;11.32;;;;;;;12.35;89.57;99986.56;5047236;28;20059;-66
2022/11/04 07:08:35;;;;;;;24.35;11.75;;;;;;;11.86;92.31;99997.88;5045475;28;20060;-66
2022/11/04 07:11:02;;;;;;;23.08;11.15;;;;;;;12.14;91.12;100002.06;5046535;28;20060;-66
2022/11/04 07:13:29;;;;;;;19.35;11.63;;;;;;;11.57;93.72;100022.59;5047304;28;20052;-66
2022/11/04 07:15:56;;;;;;;19.10;11.45;;;;;;;11.68;94.05;100023.56;5045588;28;20049;-66
2022/11/04 07:18:22;;;;;;;20.40;10.88;;;;;;;11.98;92.50;100020.66;5045457;28;20037;-66
2022/11/04 07:20:49;;;;;;;16.25;9.68;;;;;;;12.29;90.13;100014.13;5046687;28;20497;-66
2022/11/04 07:23:17;;;;;;;17.40;10.07;;;;;;;12.30;89.24;100014.97;5046416;28;20048;-66
2022/11/04 07:25:43;;;;;;;11.38;8.02;;;;;;;12.51;88.17;100019.56;5045052;28;20076;-67
2022/11/04 07:28:09;;;;;;;17.73;8.15;;;;;;;12.66;87.60;100013.22;5047796;28;20052;-68
2022/11/04 07:30:36;;;;;;;11.90;7.22;;;;;;;13.12;85.34;100012.53;5046510;28;20120;-67
2022/11/04 07:33:02;;;;;;;13.20;7.20;;;;;;;13.26;85.09;100001.84;5046483;28;20048;-67
2022/11/04 07:35:29;;;;;;;14.02;7.18;;;;;;;13.26;84.41;100011.53;5046857;28;20114;-67
2022/11/04 07:37:55;;;;;;;10.73;6.47;;;;;;;13.40;84.10;100024.50;5046987;28;20056;-68
2022/11/04 07:40:23;;;;;;;11.07;6.55;;;;;;;13.47;84.46;100026.56;5044431;28;20045;-67
2022/11/04 07:42:49;;;;;;;8.60;5.32;;;;;;;13.71;83.04;100029.13;5047815;28;20049;-66
2022/11/04 07:45:16;;;;;;;8.55;5.60;;;;;;;13.86;81.93;100032.38;5046588;28;20516;-66
2022/11/04 07:47:43;;;;;;;7.18;4.80;;;;;;;13.81;82.06;100040.66;5046650;28;20049;-66
2022/11/04 07:50:09;;;;;;;9.50;5.82;;;;;;;13.96;82.12;100055.31;5045644;28;20098;-67
2022/11/04 07:52:36;;;;;;;6.90;4.05;;;;;;;13.81;81.23;100050.38;5045053;28;20492;-67
2022/11/04 07:55:03;;;;;;;7.97;4.40;;;;;;;14.01;79.93;100055.78;5046903;28;20401;-67
2022/11/04 07:57:30;;;;;;;8.85;4.43;;;;;;;14.19;78.97;100055.34;5048697;28;20169;-66
2022/11/04 07:59:57;;;;;;;7.07;4.38;;;;;;;14.15;79.70;100055.56;5045215;28;20056;-67
2022/11/04 08:02:23;;;;;;;8.05;4.85;;;;;;;14.08;79.87;100050.88;5046410;28;20045;-67
2022/11/04 08:04:50;;;;;;;9.50;5.07;;;;;;;14.20;78.77;100042.03;5045072;28;20052;-67
2022/11/04 08:07:16;;;;;;;6.75;4.53;;;;;;;14.22;78.82;100032.22;5044723;28;20041;-66
2022/11/04 08:09:43;;;;;;;6.43;4.40;;;;;;;14.22;78.61;100028.75;5045256;28;20049;-66
2022/11/04 08:12:09;;;;;;;6.32;4.13;;;;;;;14.40;77.81;100032.59;5045609;28;20508;-67
2022/11/04 08:14:37;;;;;;;6.28;4.03;;;;;;;14.46;77.06;100025.03;5044710;28;20705;-67
2022/11/04 08:17:03;;;;;;;9.13;3.58;;;;;;;14.17;77.28;100038.78;5045192;28;20451;-67
2022/11/04 08:19:30;;;;;;;8.82;4.05;;;;;;;14.19;77.50;100040.34;5045341;28;20045;-66
2022/11/04 08:21:56;;;;;;;6.97;4.05;;;;;;;14.24;77.58;100040.00;5044783;28;20489;-66
2022/11/04 08:24:24;;;;;;;6.88;3.67;;;;;;;14.39;76.94;100058.13;5046369;28;20517;-67
2022/11/04 08:26:50;;;;;;;6.07;4.00;;;;;;;14.47;76.54;100060.19;5043066;28;20528;-66
2022/11/04 08:29:16;;;;;;;7.72;3.83;;;;;;;14.48;75.74;100046.88;5044211;28;20041;-67
2022/11/04 08:31:44;;;;;;;5.35;3.33;;;;;;;14.68;74.86;100041.78;5046039;28;20417;-66
2022/11/04 08:34:11;;;;;;;4.78;3.30;;;;;;;14.48;74.36;100036.31;5044397;28;20044;-66
2022/11/04 08:36:39;;;;;;;3.40;2.58;;;;;;;14.54;73.94;100040.25;5044936;28;20048;-66
2022/11/04 08:39:08;;;;;;;4.40;3.50;;;;;;;14.46;74.63;100040.03;5045286;28;20049;-66
2022/11/04 08:41:36;;;;;;;4.90;3.00;;;;;;;14.52;75.11;100043.00;5044824;28;20045;-67
2022/11/04 08:44:03;;;;;;;5.15;3.20;;;;;;;14.68;74.42;100052.34;5045693;28;20131;-67
2022/11/04 08:46:32;;;;;;;5.43;3.17;;;;;;;14.12;76.06;100050.53;5046572;28;20417;-67
2022/11/04 08:49:00;;;;;;;3.90;2.95;;;;;;;14.05;75.93;100059.03;5045192;28;20056;-67
2022/11/04 08:51:27;;;;;;;6.13;3.20;;;;;;;14.06;75.31;100071.25;5044641;28;20048;-67
2022/11/04 08:53:54;;;;;;;6.40;3.03;;;;;;;14.38;72.97;100055.59;5047161;28;20059;-67
2022/11/04 08:56:23;;;;;;;10.20;3.20;;;;;;;14.11;74.38;100051.50;5049787;28;20052;-67
2022/11/04 08:58:50;;;;;;;4.63;2.95;;;;;;;14.20;74.16;100052.56;5049479;28;20056;-67
2022/11/04 09:01:17;;;;;;;6.15;3.20;;;;;;;14.33;73.83;100066.50;5047395;28;20052;-66
2022/11/04 09:03:44;;;;;;;4.75;2.83;;;;;;;14.21;73.68;100063.97;5050540;28;20056;-66
2022/11/04 09:06:14;;;;;;;5.90;2.92;;;;;;;14.16;73.58;100064.31;5049100;28;20041;-66
2022/11/04 09:08:42;;;;;;;7.50;3.00;;;;;;;14.23;74.13;100048.88;5048690;28;20056;-66
2022/11/04 09:11:11;;;;;;;8.30;3.10;;;;;;;14.14;74.51;100047.78;5048957;28;20082;-66
2022/11/04 09:13:37;;;;;;;4.15;2.53;;;;;;;14.17;73.85;100031.72;5050398;28;20236;-66
2022/11/04 09:16:05;;;;;;;5.15;2.30;;;;;;;14.29;72.50;100038.69;5048682;28;20045;-67
2022/11/04 09:18:31;;;;;;;5.43;2.50;;;;;;;14.25;72.26;100023.22;5050144;28;20459;-67
2022/11/04 09:21:00;;;;;;;4.88;2.10;;;;;;;14.30;71.67;100031.63;5049184;28;20044;-67
2022/11/04 09:23:28;;;;;;;6.45;2.50;;;;;;;14.28;71.95;100031.72;5052484;28;20041;-67
2022/11/04 09:25:56;;;;;;;5.30;2.10;;;;;;;14.37;73.08;100023.13;5051620;28;20531;-67
2022/11/04 09:28:22;;;;;;;4.20;2.17;;;;;;;14.17;72.29;100013.25;5049716;28;20634;-67
2022/11/04 09:30:49;;;;;;;2.58;2.00;;;;;;;14.49;73.31;100018.66;5041071;28;20422;-66
2022/11/04 09:33:16;;;;;;;9.88;1.85;;;;;;;14.64;70.96;100006.91;5048751;28;20048;-67
2022/11/04 09:35:42;;;;;;;7.07;2.20;;;;;;;14.61;71.58;100001.88;5048156;28;20057;-67
2022/11/04 09:38:09;;;;;;;3.97;1.80;;;;;;;14.59;72.03;99983.56;5048940;28;20052;-67
2022/11/04 09:40:37;;;;;;;7.93;2.20;;;;;;;14.22;73.41;99978.63;5048067;28;20045;-67
2022/11/04 09:43:14;;;;;;;3.33;2.05;;;;;;;14.49;71.93;99990.50;5050233;28;20058;-67
2022/11/04 09:45:42;;;;;;;4.00;2.17;;;;;;;14.41;72.14;99987.63;5030192;28;20054;-67
2022/11/04 09:48:16;;;;;;;3.63;1.88;;;;;;;14.78;72.08;99993.44;5038365;28;20041;-67
2022/11/04 09:50:48;;;;;;;4.80;2.22;;;;;;;14.96;72.02;99994.59;5046817;28;20041;-67
2022/11/04 09:53:18;;;;;;;3.10;1.90;;;;;;;14.94;70.14;100008.88;5047444;28;20565;-67
2022/11/04 09:55:52;;;;;;;2.45;1.77;;;;;;;14.87;68.51;100034.09;5048407;28;20048;-67
2022/11/04 09:58:19;;;;;;;3.72;1.90;;;;;;;14.97;68.75;100045.56;5051150;28;20420;-67
2022/11/04 10:00:51;;;;;;;3.30;2.00;;;;;;;14.98;68.09;100037.56;5046233;28;20037;-67
2022/11/04 10:03:31;;;;;;;4.90;1.85;;;;;;;14.78;68.43;100026.94;5046025;28;20037;-68
2022/11/04 10:06:09;;;;;;;3.80;2.05;;;;;;;15.06;67.27;100026.38;5046924;28;20049;-68
2022/11/04 10:08:53;;;;;;;2.28;1.60;;;;;;;15.02;67.83;100025.78;5028098;28;20604;-68
2022/11/04 10:11:29;;;;;;;6.78;1.95;;;;;;;14.94;68.70;100027.34;5028198;28;20056;-68
2022/11/04 10:14:16;;;;;;;4.00;1.80;;;;;;;14.88;67.91;100051.63;5037435;28;20467;-68
2022/11/04 10:16:56;;;;;;;3.90;1.92;;;;;;;14.88;67.53;100059.53;5048977;28;20123;-68
2022/11/04 10:19:36;;;;;;;3.17;1.77;;;;;;;14.93;67.19;100052.91;5048425;28;20480;-67
2022/11/04 10:22:10;;;;;;;7.22;2.38;;;;;;;14.91;68.17;100061.91;5048872;28;20053;-67
2022/11/04 10:24:42;;;;;;;2.97;1.83;;;;;;;14.99;67.49;100078.00;5048342;28;20420;-67
2022/11/04 10:27:16;;;;;;;3.10;2.08;;;;;;;14.97;67.04;100080.75;5046404;28;20126;-68
2022/11/04 10:29:44;;;;;;;7.15;2.10;;;;;;;14.93;67.44;100078.47;5045709;28;20124;-67
2022/11/04 10:32:16;;;;;;;3.55;2.28;;;;;;;15.04;67.51;100071.38;5047459;28;20048;-67
2022/11/04 10:34:48;;;;;;;5.20;2.20;;;;;;;14.77;68.52;100073.59;5047787;28;20049;-67
2022/11/04 10:37:15;;;;;;;;;;;;;;;14.85;68.51;100081.75;5048222;28;20492;-67
2022/11/04 10:39:44;;;;;;;7.25;2.10;;;;;;;14.63;68.61;100090.50;5046091;28;20423;-67
2022/11/04 10:42:14;;;;;;;5.22;1.80;;;;;;;14.68;67.30;100092.78;5047511;28;20036;-67
2022/11/04 10:44:41;;;;;;;4.97;2.15;;;;;;;14.81;67.17;100082.09;5048010;28;20056;-67
2022/11/04 10:47:18;;;;;;;2.88;1.85;;;;;;;14.53;68.82;100076.34;5047840;28;20086;-67
2022/11/04 10:50:19;;;;;;;5.32;2.47;;;;;;;14.74;68.00;100075.63;5046830;28;20045;-67
2022/11/04 10:52:45;;;;;;;4.70;2.00;;;;;;;14.70;68.19;100082.13;4984959;28;20534;-67
2022/11/04 10:55:25;;;;;;;3.25;2.03;;;;;;;14.73;67.29;100081.88;5033509;28;20045;-67
2022/11/04 10:57:57;;;;;;;5.53;2.13;;;;;;;14.88;67.99;100084.13;5049398;28;20037;-67
2022/11/04 11:00:38;;;;;;;5.35;2.45;;;;;;;14.88;68.84;100088.56;5047319;28;20404;-67
2022/11/04 11:03:23;;;;;;;4.18;1.90;;;;;;;14.65;68.10;100090.38;5029630;28;20546;-67
2022/11/04 11:05:50;;;;;;;5.55;2.20;;;;;;;14.66;67.63;100093.88;5019895;28;20058;-67
2022/11/04 11:08:28;;;;;;;3.50;1.90;;;;;;;14.63;68.18;100101.03;5021249;28;20053;-67
2022/11/04 11:10:55;;;;;;;5.55;2.38;;;;;;;14.70;67.20;100100.59;5026937;28;20052;-67
2022/11/04 11:13:27;;;;;;;6.53;2.40;;;;;;;14.77;67.32;100094.69;5028768;28;20045;-67
2022/11/04 11:16:06;;;;;;;5.35;2.25;;;;;;;15.04;66.34;100095.13;5005908;28;20046;-67
2022/11/04 11:18:33;;;;;;;6.60;2.10;;;;;;;14.73;67.76;100095.06;5007266;28;20050;-67
2022/11/04 11:21:12;;;;;;;6.82;2.35;;;;;;;14.60;67.23;100092.53;5007640;28;20046;-67
2022/11/04 11:23:42;;;;;;;6.50;2.72;;;;;;;14.63;67.56;100101.03;5022168;28;20056;-67
2022/11/04 11:26:12;;;;;;;3.83;2.50;;;;;;;14.80;67.26;100093.63;5027927;28;20045;-67
2022/11/04 11:28:41;;;;;;;6.00;2.17;;;;;;;14.63;67.94;100106.31;5024233;28;20061;-67
2022/11/04 11:31:15;;;;;;;4.68;2.30;;;;;;;14.46;68.48;100113.88;5025476;28;20416;-67
2022/11/04 11:33:48;;;;;;;6.72;2.53;;;;;;;14.49;68.57;100118.91;5026615;28;20045;-67
2022/11/04 11:36:19;;;;;;;6.28;2.47;;;;;;;14.66;68.36;100117.63;5025592;28;20457;-68
2022/11/04 11:39:00;;;;;;;6.93;2.55;;;;;;;14.75;67.56;100104.53;5026026;28;20472;-67
2022/11/04 11:41:33;;;;;;;8.93;2.40;;;;;;;14.69;67.06;100112.94;5026066;28;20568;-68
2022/11/04 11:44:06;;;;;;;7.05;2.58;;;;;;;14.91;66.37;100112.91;5027400;28;20044;-67
2022/11/04 11:46:35;;;;;;;7.53;2.72;;;;;;;14.76;66.95;100115.94;5027098;28;20045;-68
2022/11/04 11:49:03;;;;;;;6.22;2.40;;;;;;;14.87;66.72;100118.56;5024862;28;20409;-67
2022/11/04 11:51:32;;;;;;;4.05;2.45;;;;;;;15.02;66.35;100104.13;5026833;28;20042;-67
2022/11/04 11:54:21;;;;;;;5.75;2.30;;;;;;;14.88;65.81;100107.03;5026716;28;20046;-67
2022/11/04 11:56:50;;;;;;;6.68;2.42;;;;;;;14.97;65.53;100115.06;5030182;28;20073;-67
2022/11/04 11:59:25;;;;;;;4.60;2.30;;;;;;;14.80;65.60;100112.09;5028771;28;20049;-67
2022/11/04 12:02:01;;;;;;;5.35;2.83;;;;;;;14.93;66.49;100108.34;5006279;28;20056;-68
2022/11/04 12:04:28;;;;;;;4.43;2.50;;;;;;;14.97;66.30;100114.22;5024416;28;20041;-67
2022/11/04 12:07:06;;;;;;;5.28;2.45;;;;;;;15.05;65.79;100120.56;5024920;28;20045;-68
2022/11/04 12:09:38;;;;;;;6.80;2.60;;;;;;;15.28;64.68;100124.00;5029835;28;20060;-68